sensor_id;sensor_type;location;lat;lon;timestamp;P1;durP1;ratioP1;P2;durP2;ratioP2
82505;SDS011;72144;51.444;10.560;2024-01-07T00:00:49;15.23;;;8.15;;
82505;SDS011;72144;51.444;10.560;2024-01-07T00:03:14;16.38;;;8.38;;
82505;SDS011;72144;51.444;10.560;2024-01-07T00:05:39;12.57;;;7.55;;
82505;SDS011;72144;51.444;10.560;2024-01-07T00:08:05;13.90;;;8.15;;
82505;SDS011;72144;51.444;10.560;2024-01-07T00:10:30;16.08;;;8.25;;
82505;SDS011;72144;51.444;10.560;2024-01-07T00:12:56;15.00;;;9.15;;
82505;SDS011;72144;51.444;10.560;2024-01-07T00:15:21;16.25;;;8.68;;
82505;SDS011;72144;51.444;10.560;2024-01-07T00:17:46;16.02;;;9.68;;
82505;SDS011;72144;51.444;10.560;2024-01-07T00:20:12;15.70;;;9.18;;
82505;SDS011;72144;51.444;10.560;2024-01-07T00:22:37;14.65;;;8.57;;
82505;SDS011;72144;51.444;10.560;2024-01-07T00:25:03;14.00;;;8.07;;
82505;SDS011;72144;51.444;10.560;2024-01-07T00:27:28;16.85;;;8.82;;
82505;SDS011;72144;51.444;10.560;2024-01-07T00:29:53;13.38;;;7.93;;
82505;SDS011;72144;51.444;10.560;2024-01-07T00:32:19;15.55;;;8.68;;
82505;SDS011;72144;51.444;10.560;2024-01-07T00:34:44;14.13;;;7.57;;
82505;SDS011;72144;51.444;10.560;2024-01-07T00:37:09;17.10;;;8.93;;
82505;SDS011;72144;51.444;10.560;2024-01-07T00:39:35;15.38;;;8.07;;
82505;SDS011;72144;51.444;10.560;2024-01-07T00:42:00;13.52;;;8.07;;
82505;SDS011;72144;51.444;10.560;2024-01-07T00:44:25;17.05;;;8.63;;
82505;SDS011;72144;51.444;10.560;2024-01-07T00:46:51;14.60;;;8.02;;
82505;SDS011;72144;51.444;10.560;2024-01-07T00:49:16;15.45;;;8.02;;
82505;SDS011;72144;51.444;10.560;2024-01-07T00:51:42;15.32;;;8.50;;
82505;SDS011;72144;51.444;10.560;2024-01-07T00:54:07;15.50;;;8.82;;
82505;SDS011;72144;51.444;10.560;2024-01-07T00:56:32;14.55;;;8.27;;
82505;SDS011;72144;51.444;10.560;2024-01-07T00:58:58;14.10;;;8.45;;
82505;SDS011;72144;51.444;10.560;2024-01-07T01:01:23;14.05;;;8.90;;
82505;SDS011;72144;51.444;10.560;2024-01-07T01:03:48;13.70;;;7.95;;
82505;SDS011;72144;51.444;10.560;2024-01-07T01:06:14;13.90;;;7.55;;
82505;SDS011;72144;51.444;10.560;2024-01-07T01:08:39;12.82;;;8.20;;
82505;SDS011;72144;51.444;10.560;2024-01-07T01:11:05;10.82;;;6.72;;
82505;SDS011;72144;51.444;10.560;2024-01-07T01:13:30;12.75;;;7.07;;
82505;SDS011;72144;51.444;10.560;2024-01-07T01:15:55;11.98;;;6.75;;
82505;SDS011;72144;51.444;10.560;2024-01-07T01:18:21;13.68;;;8.10;;
82505;SDS011;72144;51.444;10.560;2024-01-07T01:20:46;11.82;;;6.65;;
82505;SDS011;72144;51.444;10.560;2024-01-07T01:23:12;12.45;;;7.70;;
82505;SDS011;72144;51.444;10.560;2024-01-07T01:25:37;12.30;;;7.45;;
82505;SDS011;72144;51.444;10.560;2024-01-07T01:28:04;12.43;;;6.70;;
82505;SDS011;72144;51.444;10.560;2024-01-07T01:30:30;11.05;;;7.22;;
82505;SDS011;72144;51.444;10.560;2024-01-07T01:32:56;11.35;;;7.07;;
82505;SDS011;72144;51.444;10.560;2024-01-07T01:35:22;11.77;;;7.22;;
82505;SDS011;72144;51.444;10.560;2024-01-07T01:37:47;12.23;;;7.50;;
82505;SDS011;72144;51.444;10.560;2024-01-07T01:40:13;12.23;;;7.13;;
82505;SDS011;72144;51.444;10.560;2024-01-07T01:42:42;11.90;;;7.53;;
82505;SDS011;72144;51.444;10.560;2024-01-07T01:45:08;11.20;;;6.75;;
82505;SDS011;72144;51.444;10.560;2024-01-07T01:47:33;9.35;;;6.43;;
82505;SDS011;72144;51.444;10.560;2024-01-07T01:49:59;9.98;;;7.00;;
82505;SDS011;72144;51.444;10.560;2024-01-07T01:52:24;10.55;;;5.70;;
82505;SDS011;72144;51.444;10.560;2024-01-07T01:54:52;11.02;;;5.70;;
82505;SDS011;72144;51.444;10.560;2024-01-07T01:57:19;11.07;;;6.63;;
82505;SDS011;72144;51.444;10.560;2024-01-07T01:59:47;10.35;;;5.82;;
82505;SDS011;72144;51.444;10.560;2024-01-07T02:02:13;10.93;;;6.88;;
82505;SDS011;72144;51.444;10.560;2024-01-07T02:04:38;10.23;;;6.43;;
82505;SDS011;72144;51.444;10.560;2024-01-07T02:07:04;9.27;;;5.22;;
82505;SDS011;72144;51.444;10.560;2024-01-07T02:09:29;7.22;;;4.25;;
82505;SDS011;72144;51.444;10.560;2024-01-07T02:12:04;10.68;;;6.55;;
82505;SDS011;72144;51.444;10.560;2024-01-07T02:14:30;10.23;;;6.75;;
82505;SDS011;72144;51.444;10.560;2024-01-07T02:16:55;9.32;;;6.30;;
82505;SDS011;72144;51.444;10.560;2024-01-07T02:19:21;6.22;;;3.28;;
82505;SDS011;72144;51.444;10.560;2024-01-07T02:21:47;9.90;;;6.28;;
82505;SDS011;72144;51.444;10.560;2024-01-07T02:24:15;9.43;;;5.78;;
82505;SDS011;72144;51.444;10.560;2024-01-07T02:26:41;9.25;;;5.55;;
82505;SDS011;72144;51.444;10.560;2024-01-07T02:29:06;6.18;;;3.83;;
82505;SDS011;72144;51.444;10.560;2024-01-07T02:31:32;7.45;;;5.15;;
82505;SDS011;72144;51.444;10.560;2024-01-07T02:33:57;9.27;;;5.47;;
82505;SDS011;72144;51.444;10.560;2024-01-07T02:36:22;8.07;;;5.47;;
82505;SDS011;72144;51.444;10.560;2024-01-07T02:38:48;10.10;;;6.13;;
82505;SDS011;72144;51.444;10.560;2024-01-07T02:41:13;6.60;;;5.05;;
82505;SDS011;72144;51.444;10.560;2024-01-07T02:43:38;8.68;;;5.10;;
82505;SDS011;72144;51.444;10.560;2024-01-07T02:46:04;9.38;;;6.00;;
82505;SDS011;72144;51.444;10.560;2024-01-07T02:48:29;9.88;;;6.40;;
82505;SDS011;72144;51.444;10.560;2024-01-07T02:50:55;8.50;;;6.38;;
82505;SDS011;72144;51.444;10.560;2024-01-07T02:53:21;9.45;;;6.13;;
82505;SDS011;72144;51.444;10.560;2024-01-07T02:55:46;10.20;;;6.60;;
82505;SDS011;72144;51.444;10.560;2024-01-07T02:58:11;9.85;;;6.38;;
82505;SDS011;72144;51.444;10.560;2024-01-07T03:00:37;10.93;;;6.43;;
82505;SDS011;72144;51.444;10.560;2024-01-07T03:03:02;10.23;;;6.22;;
82505;SDS011;72144;51.444;10.560;2024-01-07T03:05:27;9.43;;;6.15;;
82505;SDS011;72144;51.444;10.560;2024-01-07T03:07:57;9.02;;;4.93;;
82505;SDS011;72144;51.444;10.560;2024-01-07T03:10:23;7.85;;;5.03;;
82505;SDS011;72144;51.444;10.560;2024-01-07T03:12:48;9.02;;;5.78;;
82505;SDS011;72144;51.444;10.560;2024-01-07T03:15:13;8.07;;;5.47;;
82505;SDS011;72144;51.444;10.560;2024-01-07T03:17:39;11.15;;;6.70;;
82505;SDS011;72144;51.444;10.560;2024-01-07T03:20:04;9.57;;;6.15;;
82505;SDS011;72144;51.444;10.560;2024-01-07T03:22:30;10.00;;;6.10;;
82505;SDS011;72144;51.444;10.560;2024-01-07T03:24:56;9.35;;;5.38;;
82505;SDS011;72144;51.444;10.560;2024-01-07T03:27:21;8.00;;;5.57;;
82505;SDS011;72144;51.444;10.560;2024-01-07T03:29:46;9.05;;;6.05;;
82505;SDS011;72144;51.444;10.560;2024-01-07T03:32:12;9.45;;;5.82;;
82505;SDS011;72144;51.444;10.560;2024-01-07T03:34:38;9.35;;;5.72;;
82505;SDS011;72144;51.444;10.560;2024-01-07T03:37:04;8.50;;;5.93;;
82505;SDS011;72144;51.444;10.560;2024-01-07T03:39:31;9.43;;;6.03;;
82505;SDS011;72144;51.444;10.560;2024-01-07T03:41:58;8.70;;;5.50;;
82505;SDS011;72144;51.444;10.560;2024-01-07T03:44:23;8.60;;;5.35;;
82505;SDS011;72144;51.444;10.560;2024-01-07T03:46:49;8.70;;;5.60;;
82505;SDS011;72144;51.444;10.560;2024-01-07T03:49:14;6.85;;;4.88;;
82505;SDS011;72144;51.444;10.560;2024-01-07T03:51:39;10.02;;;5.47;;
82505;SDS011;72144;51.444;10.560;2024-01-07T03:54:05;9.68;;;5.95;;
82505;SDS011;72144;51.444;10.560;2024-01-07T03:56:30;9.63;;;5.53;;
82505;SDS011;72144;51.444;10.560;2024-01-07T03:58:56;7.95;;;4.90;;
82505;SDS011;72144;51.444;10.560;2024-01-07T04:01:21;7.65;;;5.50;;
82505;SDS011;72144;51.444;10.560;2024-01-07T04:03:46;8.77;;;6.13;;
82505;SDS011;72144;51.444;10.560;2024-01-07T04:06:12;6.18;;;3.95;;
82505;SDS011;72144;51.444;10.560;2024-01-07T04:08:37;7.25;;;5.38;;
82505;SDS011;72144;51.444;10.560;2024-01-07T04:11:03;7.07;;;5.03;;
82505;SDS011;72144;51.444;10.560;2024-01-07T04:13:28;7.32;;;4.82;;
82505;SDS011;72144;51.444;10.560;2024-01-07T04:15:54;7.95;;;5.28;;
82505;SDS011;72144;51.444;10.560;2024-01-07T04:18:19;8.10;;;5.45;;
82505;SDS011;72144;51.444;10.560;2024-01-07T04:20:44;8.50;;;6.53;;
82505;SDS011;72144;51.444;10.560;2024-01-07T04:23:10;6.68;;;4.18;;
82505;SDS011;72144;51.444;10.560;2024-01-07T04:25:35;9.48;;;5.28;;
82505;SDS011;72144;51.444;10.560;2024-01-07T04:28:00;9.25;;;6.07;;
82505;SDS011;72144;51.444;10.560;2024-01-07T04:30:26;7.78;;;4.97;;
82505;SDS011;72144;51.444;10.560;2024-01-07T04:32:51;9.10;;;5.57;;
82505;SDS011;72144;51.444;10.560;2024-01-07T04:35:16;8.52;;;5.22;;
82505;SDS011;72144;51.444;10.560;2024-01-07T04:37:42;8.65;;;5.25;;
82505;SDS011;72144;51.444;10.560;2024-01-07T04:40:07;7.53;;;4.90;;
82505;SDS011;72144;51.444;10.560;2024-01-07T04:42:33;7.10;;;4.85;;
82505;SDS011;72144;51.444;10.560;2024-01-07T04:44:59;7.25;;;4.97;;
82505;SDS011;72144;51.444;10.560;2024-01-07T04:47:28;7.88;;;5.00;;
82505;SDS011;72144;51.444;10.560;2024-01-07T04:49:55;9.93;;;5.57;;
82505;SDS011;72144;51.444;10.560;2024-01-07T04:52:21;5.35;;;2.78;;
82505;SDS011;72144;51.444;10.560;2024-01-07T04:54:48;6.85;;;5.22;;
82505;SDS011;72144;51.444;10.560;2024-01-07T04:57:15;7.25;;;5.03;;
82505;SDS011;72144;51.444;10.560;2024-01-07T04:59:40;5.40;;;3.58;;
82505;SDS011;72144;51.444;10.560;2024-01-07T05:02:05;7.07;;;4.90;;
82505;SDS011;72144;51.444;10.560;2024-01-07T05:04:31;7.90;;;4.88;;
82505;SDS011;72144;51.444;10.560;2024-01-07T05:06:57;7.45;;;4.40;;
82505;SDS011;72144;51.444;10.560;2024-01-07T05:09:22;6.65;;;4.60;;
82505;SDS011;72144;51.444;10.560;2024-01-07T05:11:47;7.72;;;5.13;;
82505;SDS011;72144;51.444;10.560;2024-01-07T05:14:13;6.85;;;4.78;;
82505;SDS011;72144;51.444;10.560;2024-01-07T05:16:38;8.80;;;5.38;;
82505;SDS011;72144;51.444;10.560;2024-01-07T05:19:04;6.93;;;4.85;;
82505;SDS011;72144;51.444;10.560;2024-01-07T05:21:29;7.47;;;5.32;;
82505;SDS011;72144;51.444;10.560;2024-01-07T05:23:55;6.45;;;4.47;;
82505;SDS011;72144;51.444;10.560;2024-01-07T05:26:21;7.38;;;4.18;;
82505;SDS011;72144;51.444;10.560;2024-01-07T05:28:46;5.28;;;3.78;;
82505;SDS011;72144;51.444;10.560;2024-01-07T05:31:18;6.13;;;4.43;;
82505;SDS011;72144;51.444;10.560;2024-01-07T05:33:43;7.65;;;4.57;;
82505;SDS011;72144;51.444;10.560;2024-01-07T05:36:12;6.07;;;4.32;;
82505;SDS011;72144;51.444;10.560;2024-01-07T05:38:38;5.47;;;3.50;;
82505;SDS011;72144;51.444;10.560;2024-01-07T05:41:04;5.45;;;3.67;;
82505;SDS011;72144;51.444;10.560;2024-01-07T05:43:30;6.60;;;4.20;;
82505;SDS011;72144;51.444;10.560;2024-01-07T05:45:55;6.40;;;3.80;;
82505;SDS011;72144;51.444;10.560;2024-01-07T05:48:21;7.35;;;3.45;;
82505;SDS011;72144;51.444;10.560;2024-01-07T05:50:47;8.55;;;4.13;;
82505;SDS011;72144;51.444;10.560;2024-01-07T05:53:13;6.18;;;3.85;;
82505;SDS011;72144;51.444;10.560;2024-01-07T05:55:38;6.30;;;3.50;;
82505;SDS011;72144;51.444;10.560;2024-01-07T05:58:04;6.43;;;3.55;;
82505;SDS011;72144;51.444;10.560;2024-01-07T06:00:29;5.72;;;3.47;;
82505;SDS011;72144;51.444;10.560;2024-01-07T06:02:55;5.80;;;3.20;;
82505;SDS011;72144;51.444;10.560;2024-01-07T06:05:21;7.00;;;3.58;;
82505;SDS011;72144;51.444;10.560;2024-01-07T06:07:46;7.35;;;3.53;;
82505;SDS011;72144;51.444;10.560;2024-01-07T06:10:11;6.20;;;3.63;;
82505;SDS011;72144;51.444;10.560;2024-01-07T06:12:37;7.13;;;3.80;;
82505;SDS011;72144;51.444;10.560;2024-01-07T06:15:02;6.60;;;3.85;;
82505;SDS011;72144;51.444;10.560;2024-01-07T06:17:28;5.68;;;3.47;;
82505;SDS011;72144;51.444;10.560;2024-01-07T06:19:53;5.95;;;3.72;;
82505;SDS011;72144;51.444;10.560;2024-01-07T06:22:19;9.27;;;4.30;;
82505;SDS011;72144;51.444;10.560;2024-01-07T06:24:44;7.40;;;3.67;;
82505;SDS011;72144;51.444;10.560;2024-01-07T06:27:10;6.45;;;4.05;;
82505;SDS011;72144;51.444;10.560;2024-01-07T06:29:35;7.78;;;4.15;;
82505;SDS011;72144;51.444;10.560;2024-01-07T06:32:01;6.28;;;3.97;;
82505;SDS011;72144;51.444;10.560;2024-01-07T06:34:27;6.18;;;3.88;;
82505;SDS011;72144;51.444;10.560;2024-01-07T06:36:53;7.50;;;3.70;;
82505;SDS011;72144;51.444;10.560;2024-01-07T06:39:18;7.68;;;4.05;;
82505;SDS011;72144;51.444;10.560;2024-01-07T06:41:43;5.50;;;3.58;;
82505;SDS011;72144;51.444;10.560;2024-01-07T06:44:09;8.27;;;5.18;;
82505;SDS011;72144;51.444;10.560;2024-01-07T06:46:34;9.27;;;4.53;;
82505;SDS011;72144;51.444;10.560;2024-01-07T06:48:59;6.30;;;3.83;;
82505;SDS011;72144;51.444;10.560;2024-01-07T06:51:25;6.97;;;3.67;;
82505;SDS011;72144;51.444;10.560;2024-01-07T06:53:51;6.43;;;3.90;;
82505;SDS011;72144;51.444;10.560;2024-01-07T06:56:16;6.25;;;3.63;;
82505;SDS011;72144;51.444;10.560;2024-01-07T06:58:42;7.53;;;3.42;;
82505;SDS011;72144;51.444;10.560;2024-01-07T07:01:07;6.70;;;3.47;;
82505;SDS011;72144;51.444;10.560;2024-01-07T07:03:33;7.68;;;3.85;;
82505;SDS011;72144;51.444;10.560;2024-01-07T07:05:58;6.60;;;3.50;;
82505;SDS011;72144;51.444;10.560;2024-01-07T07:08:23;8.27;;;3.83;;
82505;SDS011;72144;51.444;10.560;2024-01-07T07:10:49;5.38;;;3.20;;
82505;SDS011;72144;51.444;10.560;2024-01-07T07:13:14;4.80;;;2.53;;
82505;SDS011;72144;51.444;10.560;2024-01-07T07:15:40;5.30;;;2.63;;
82505;SDS011;72144;51.444;10.560;2024-01-07T07:18:05;5.10;;;2.90;;
82505;SDS011;72144;51.444;10.560;2024-01-07T07:20:31;5.10;;;3.20;;
82505;SDS011;72144;51.444;10.560;2024-01-07T07:22:56;5.47;;;3.20;;
82505;SDS011;72144;51.444;10.560;2024-01-07T07:25:22;6.97;;;3.08;;
82505;SDS011;72144;51.444;10.560;2024-01-07T07:27:47;5.28;;;3.05;;
82505;SDS011;72144;51.444;10.560;2024-01-07T07:30:14;3.35;;;2.13;;
82505;SDS011;72144;51.444;10.560;2024-01-07T07:32:40;4.95;;;3.05;;
82505;SDS011;72144;51.444;10.560;2024-01-07T07:35:07;5.63;;;3.17;;
82505;SDS011;72144;51.444;10.560;2024-01-07T07:37:33;4.03;;;2.45;;
82505;SDS011;72144;51.444;10.560;2024-01-07T07:39:58;3.90;;;2.55;;
82505;SDS011;72144;51.444;10.560;2024-01-07T07:42:24;5.43;;;2.75;;
82505;SDS011;72144;51.444;10.560;2024-01-07T07:44:49;5.13;;;3.47;;
82505;SDS011;72144;51.444;10.560;2024-01-07T07:47:14;3.97;;;2.20;;
82505;SDS011;72144;51.444;10.560;2024-01-07T07:49:40;5.40;;;2.70;;
82505;SDS011;72144;51.444;10.560;2024-01-07T07:52:08;3.33;;;2.30;;
82505;SDS011;72144;51.444;10.560;2024-01-07T07:54:34;6.03;;;2.30;;
82505;SDS011;72144;51.444;10.560;2024-01-07T07:56:59;3.85;;;2.22;;
82505;SDS011;72144;51.444;10.560;2024-01-07T07:59:24;3.47;;;2.22;;
82505;SDS011;72144;51.444;10.560;2024-01-07T08:01:50;3.30;;;2.35;;
82505;SDS011;72144;51.444;10.560;2024-01-07T08:04:15;4.70;;;2.50;;
82505;SDS011;72144;51.444;10.560;2024-01-07T08:06:41;2.75;;;1.63;;
82505;SDS011;72144;51.444;10.560;2024-01-07T08:09:07;5.07;;;3.00;;
82505;SDS011;72144;51.444;10.560;2024-01-07T08:11:33;4.22;;;2.35;;
82505;SDS011;72144;51.444;10.560;2024-01-07T08:13:59;4.55;;;2.75;;
82505;SDS011;72144;51.444;10.560;2024-01-07T08:16:26;4.07;;;2.50;;
82505;SDS011;72144;51.444;10.560;2024-01-07T08:18:51;5.30;;;3.80;;
82505;SDS011;72144;51.444;10.560;2024-01-07T08:21:17;4.68;;;2.88;;
82505;SDS011;72144;51.444;10.560;2024-01-07T08:23:42;4.95;;;2.53;;
82505;SDS011;72144;51.444;10.560;2024-01-07T08:26:07;5.30;;;2.58;;
82505;SDS011;72144;51.444;10.560;2024-01-07T08:28:33;5.03;;;2.92;;
82505;SDS011;72144;51.444;10.560;2024-01-07T08:30:58;5.30;;;3.85;;
82505;SDS011;72144;51.444;10.560;2024-01-07T08:33:24;6.72;;;4.10;;
82505;SDS011;72144;51.444;10.560;2024-01-07T08:35:50;5.55;;;2.92;;
82505;SDS011;72144;51.444;10.560;2024-01-07T08:38:15;4.05;;;2.65;;
82505;SDS011;72144;51.444;10.560;2024-01-07T08:40:40;4.60;;;2.28;;
82505;SDS011;72144;51.444;10.560;2024-01-07T08:43:06;4.18;;;2.60;;
82505;SDS011;72144;51.444;10.560;2024-01-07T08:45:31;4.97;;;2.85;;
82505;SDS011;72144;51.444;10.560;2024-01-07T08:47:57;4.15;;;2.15;;
82505;SDS011;72144;51.444;10.560;2024-01-07T08:50:22;5.07;;;2.90;;
82505;SDS011;72144;51.444;10.560;2024-01-07T08:52:47;4.63;;;2.45;;
82505;SDS011;72144;51.444;10.560;2024-01-07T08:55:13;5.07;;;2.45;;
82505;SDS011;72144;51.444;10.560;2024-01-07T08:57:40;3.25;;;2.33;;
82505;SDS011;72144;51.444;10.560;2024-01-07T09:00:06;3.97;;;2.33;;
82505;SDS011;72144;51.444;10.560;2024-01-07T09:02:35;4.88;;;2.13;;
82505;SDS011;72144;51.444;10.560;2024-01-07T09:05:01;4.68;;;2.50;;
82505;SDS011;72144;51.444;10.560;2024-01-07T09:07:26;4.63;;;2.25;;
82505;SDS011;72144;51.444;10.560;2024-01-07T09:09:51;4.57;;;2.97;;
82505;SDS011;72144;51.444;10.560;2024-01-07T09:12:17;4.18;;;2.60;;
82505;SDS011;72144;51.444;10.560;2024-01-07T09:14:42;4.35;;;2.38;;
82505;SDS011;72144;51.444;10.560;2024-01-07T09:17:07;5.55;;;2.80;;
82505;SDS011;72144;51.444;10.560;2024-01-07T09:19:33;5.40;;;2.30;;
82505;SDS011;72144;51.444;10.560;2024-01-07T09:21:59;4.10;;;2.50;;
82505;SDS011;72144;51.444;10.560;2024-01-07T09:24:25;8.02;;;3.50;;
82505;SDS011;72144;51.444;10.560;2024-01-07T09:26:50;3.70;;;2.20;;
82505;SDS011;72144;51.444;10.560;2024-01-07T09:29:16;4.88;;;2.42;;
82505;SDS011;72144;51.444;10.560;2024-01-07T09:31:41;3.50;;;2.38;;
82505;SDS011;72144;51.444;10.560;2024-01-07T09:34:06;4.03;;;2.20;;
82505;SDS011;72144;51.444;10.560;2024-01-07T09:36:32;4.53;;;2.25;;
82505;SDS011;72144;51.444;10.560;2024-01-07T09:38:58;4.68;;;2.72;;
82505;SDS011;72144;51.444;10.560;2024-01-07T09:41:23;3.45;;;2.15;;
82505;SDS011;72144;51.444;10.560;2024-01-07T09:43:50;3.25;;;1.55;;
82505;SDS011;72144;51.444;10.560;2024-01-07T09:46:17;3.08;;;1.80;;
82505;SDS011;72144;51.444;10.560;2024-01-07T09:48:42;4.28;;;2.47;;
82505;SDS011;72144;51.444;10.560;2024-01-07T09:51:08;3.47;;;2.53;;
82505;SDS011;72144;51.444;10.560;2024-01-07T09:53:35;7.13;;;4.50;;
82505;SDS011;72144;51.444;10.560;2024-01-07T09:58:49;4.15;;;2.42;;
82505;SDS011;72144;51.444;10.560;2024-01-07T10:01:17;6.97;;;4.47;;
82505;SDS011;72144;51.444;10.560;2024-01-07T10:03:43;9.23;;;5.95;;
82505;SDS011;72144;51.444;10.560;2024-01-07T10:06:10;7.38;;;4.30;;
82505;SDS011;72144;51.444;10.560;2024-01-07T10:08:36;5.72;;;4.00;;
82505;SDS011;72144;51.444;10.560;2024-01-07T10:11:02;4.25;;;2.50;;
82505;SDS011;72144;51.444;10.560;2024-01-07T10:13:28;3.03;;;1.95;;
82505;SDS011;72144;51.444;10.560;2024-01-07T10:15:53;2.58;;;2.00;;
82505;SDS011;72144;51.444;10.560;2024-01-07T10:18:19;1.52;;;1.33;;
82505;SDS011;72144;51.444;10.560;2024-01-07T10:20:45;2.78;;;1.70;;
82505;SDS011;72144;51.444;10.560;2024-01-07T10:23:11;3.17;;;1.92;;
82505;SDS011;72144;51.444;10.560;2024-01-07T10:25:36;3.85;;;2.85;;
82505;SDS011;72144;51.444;10.560;2024-01-07T10:28:02;2.15;;;1.67;;
82505;SDS011;72144;51.444;10.560;2024-01-07T10:30:31;6.47;;;2.42;;
82505;SDS011;72144;51.444;10.560;2024-01-07T10:32:59;2.88;;;1.60;;
82505;SDS011;72144;51.444;10.560;2024-01-07T10:35:29;2.53;;;1.40;;
82505;SDS011;72144;51.444;10.560;2024-01-07T10:37:59;2.50;;;1.55;;
82505;SDS011;72144;51.444;10.560;2024-01-07T10:40:26;1.58;;;1.13;;
82505;SDS011;72144;51.444;10.560;2024-01-07T10:42:52;2.58;;;1.40;;
82505;SDS011;72144;51.444;10.560;2024-01-07T10:45:19;1.30;;;1.00;;
82505;SDS011;72144;51.444;10.560;2024-01-07T10:47:46;2.15;;;1.05;;
82505;SDS011;72144;51.444;10.560;2024-01-07T10:50:15;3.28;;;1.52;;
82505;SDS011;72144;51.444;10.560;2024-01-07T10:52:42;1.10;;;0.98;;
82505;SDS011;72144;51.444;10.560;2024-01-07T10:55:13;1.38;;;1.10;;
82505;SDS011;72144;51.444;10.560;2024-01-07T10:57:45;1.40;;;1.10;;
82505;SDS011;72144;51.444;10.560;2024-01-07T11:00:12;3.08;;;1.48;;
82505;SDS011;72144;51.444;10.560;2024-01-07T11:05:44;2.67;;;1.20;;
82505;SDS011;72144;51.444;10.560;2024-01-07T11:08:19;1.63;;;1.20;;
82505;SDS011;72144;51.444;10.560;2024-01-07T11:11:36;2.13;;;0.90;;
82505;SDS011;72144;51.444;10.560;2024-01-07T11:17:00;2.75;;;1.13;;
82505;SDS011;72144;51.444;10.560;2024-01-07T11:19:27;3.97;;;1.45;;
82505;SDS011;72144;51.444;10.560;2024-01-07T11:21:52;1.88;;;1.48;;
82505;SDS011;72144;51.444;10.560;2024-01-07T11:27:10;2.35;;;1.45;;
82505;SDS011;72144;51.444;10.560;2024-01-07T11:29:35;2.17;;;1.63;;
82505;SDS011;72144;51.444;10.560;2024-01-07T11:32:01;2.50;;;1.50;;
82505;SDS011;72144;51.444;10.560;2024-01-07T11:34:41;2.85;;;1.90;;
82505;SDS011;72144;51.444;10.560;2024-01-07T11:37:14;3.85;;;1.75;;
82505;SDS011;72144;51.444;10.560;2024-01-07T11:39:43;3.60;;;1.45;;
82505;SDS011;72144;51.444;10.560;2024-01-07T11:42:11;2.70;;;1.67;;
82505;SDS011;72144;51.444;10.560;2024-01-07T11:44:38;4.18;;;1.80;;
82505;SDS011;72144;51.444;10.560;2024-01-07T11:47:10;5.45;;;2.42;;
82505;SDS011;72144;51.444;10.560;2024-01-07T11:49:35;4.82;;;2.00;;
82505;SDS011;72144;51.444;10.560;2024-01-07T11:52:01;3.83;;;2.25;;
82505;SDS011;72144;51.444;10.560;2024-01-07T11:54:27;3.53;;;1.77;;
82505;SDS011;72144;51.444;10.560;2024-01-07T11:56:53;4.43;;;2.50;;
82505;SDS011;72144;51.444;10.560;2024-01-07T11:59:19;2.80;;;1.88;;
82505;SDS011;72144;51.444;10.560;2024-01-07T12:01:44;2.95;;;1.73;;
82505;SDS011;72144;51.444;10.560;2024-01-07T12:04:10;4.32;;;2.70;;
82505;SDS011;72144;51.444;10.560;2024-01-07T12:06:36;4.30;;;2.00;;
82505;SDS011;72144;51.444;10.560;2024-01-07T12:09:03;3.53;;;2.47;;
82505;SDS011;72144;51.444;10.560;2024-01-07T12:11:28;2.95;;;1.77;;
82505;SDS011;72144;51.444;10.560;2024-01-07T12:13:54;1.95;;;1.50;;
82505;SDS011;72144;51.444;10.560;2024-01-07T12:16:19;2.67;;;1.73;;
82505;SDS011;72144;51.444;10.560;2024-01-07T12:18:45;2.97;;;1.30;;
82505;SDS011;72144;51.444;10.560;2024-01-07T12:21:11;4.13;;;2.45;;
82505;SDS011;72144;51.444;10.560;2024-01-07T12:23:43;9.40;;;3.88;;
82505;SDS011;72144;51.444;10.560;2024-01-07T12:26:09;4.10;;;2.60;;
82505;SDS011;72144;51.444;10.560;2024-01-07T12:28:35;3.20;;;1.88;;
82505;SDS011;72144;51.444;10.560;2024-01-07T12:31:02;3.72;;;2.00;;
82505;SDS011;72144;51.444;10.560;2024-01-07T12:33:28;4.63;;;2.13;;
82505;SDS011;72144;51.444;10.560;2024-01-07T12:35:56;5.68;;;3.17;;
82505;SDS011;72144;51.444;10.560;2024-01-07T12:38:23;3.10;;;1.75;;
82505;SDS011;72144;51.444;10.560;2024-01-07T12:40:49;3.08;;;1.80;;
82505;SDS011;72144;51.444;10.560;2024-01-07T12:43:15;2.78;;;1.55;;
82505;SDS011;72144;51.444;10.560;2024-01-07T12:45:41;2.03;;;1.48;;
82505;SDS011;72144;51.444;10.560;2024-01-07T12:48:07;6.22;;;2.58;;
82505;SDS011;72144;51.444;10.560;2024-01-07T12:50:33;4.07;;;1.92;;
82505;SDS011;72144;51.444;10.560;2024-01-07T12:52:58;4.25;;;2.38;;
82505;SDS011;72144;51.444;10.560;2024-01-07T12:55:24;3.45;;;2.25;;
82505;SDS011;72144;51.444;10.560;2024-01-07T12:57:50;3.20;;;2.28;;
82505;SDS011;72144;51.444;10.560;2024-01-07T13:00:17;3.88;;;2.22;;
82505;SDS011;72144;51.444;10.560;2024-01-07T13:02:42;10.98;;;3.78;;
82505;SDS011;72144;51.444;10.560;2024-01-07T13:05:08;9.38;;;3.30;;
82505;SDS011;72144;51.444;10.560;2024-01-07T13:07:34;7.45;;;3.00;;
82505;SDS011;72144;51.444;10.560;2024-01-07T13:10:00;3.80;;;1.95;;
82505;SDS011;72144;51.444;10.560;2024-01-07T13:12:25;3.92;;;2.35;;
82505;SDS011;72144;51.444;10.560;2024-01-07T13:14:51;6.22;;;2.28;;
82505;SDS011;72144;51.444;10.560;2024-01-07T13:17:17;3.80;;;2.00;;
82505;SDS011;72144;51.444;10.560;2024-01-07T13:19:43;3.85;;;2.20;;
82505;SDS011;72144;51.444;10.560;2024-01-07T13:22:09;2.83;;;1.75;;
82505;SDS011;72144;51.444;10.560;2024-01-07T13:24:35;3.17;;;1.63;;
82505;SDS011;72144;51.444;10.560;2024-01-07T13:27:01;3.15;;;1.65;;
82505;SDS011;72144;51.444;10.560;2024-01-07T13:29:26;4.13;;;2.60;;
82505;SDS011;72144;51.444;10.560;2024-01-07T13:31:51;4.25;;;2.05;;
82505;SDS011;72144;51.444;10.560;2024-01-07T13:34:17;3.28;;;1.98;;
82505;SDS011;72144;51.444;10.560;2024-01-07T13:36:43;3.05;;;1.55;;
82505;SDS011;72144;51.444;10.560;2024-01-07T13:39:09;4.03;;;2.22;;
82505;SDS011;72144;51.444;10.560;2024-01-07T13:41:34;3.25;;;1.98;;
82505;SDS011;72144;51.444;10.560;2024-01-07T13:44:00;1.77;;;1.20;;
82505;SDS011;72144;51.444;10.560;2024-01-07T13:46:26;3.85;;;2.03;;
82505;SDS011;72144;51.444;10.560;2024-01-07T13:48:51;3.03;;;1.85;;
82505;SDS011;72144;51.444;10.560;2024-01-07T13:51:19;3.65;;;2.25;;
82505;SDS011;72144;51.444;10.560;2024-01-07T13:53:45;3.50;;;1.67;;
82505;SDS011;72144;51.444;10.560;2024-01-07T13:56:13;4.57;;;2.42;;
82505;SDS011;72144;51.444;10.560;2024-01-07T13:58:38;4.70;;;2.50;;
82505;SDS011;72144;51.444;10.560;2024-01-07T14:01:04;2.80;;;2.00;;
82505;SDS011;72144;51.444;10.560;2024-01-07T14:03:32;5.85;;;2.75;;
82505;SDS011;72144;51.444;10.560;2024-01-07T14:05:58;3.70;;;2.05;;
82505;SDS011;72144;51.444;10.560;2024-01-07T14:08:24;5.60;;;2.33;;
82505;SDS011;72144;51.444;10.560;2024-01-07T14:10:49;3.90;;;2.45;;
82505;SDS011;72144;51.444;10.560;2024-01-07T14:13:14;3.65;;;2.10;;
82505;SDS011;72144;51.444;10.560;2024-01-07T14:15:40;4.40;;;2.05;;
82505;SDS011;72144;51.444;10.560;2024-01-07T14:18:05;4.68;;;2.83;;
82505;SDS011;72144;51.444;10.560;2024-01-07T14:20:31;4.80;;;2.35;;
82505;SDS011;72144;51.444;10.560;2024-01-07T14:22:56;4.25;;;1.85;;
82505;SDS011;72144;51.444;10.560;2024-01-07T14:25:22;6.90;;;2.85;;
82505;SDS011;72144;51.444;10.560;2024-01-07T14:27:47;5.07;;;2.85;;
82505;SDS011;72144;51.444;10.560;2024-01-07T14:30:13;5.25;;;2.97;;
82505;SDS011;72144;51.444;10.560;2024-01-07T14:32:39;5.10;;;2.13;;
82505;SDS011;72144;51.444;10.560;2024-01-07T14:35:05;13.43;;;6.20;;
82505;SDS011;72144;51.444;10.560;2024-01-07T14:37:31;7.15;;;3.20;;